Time;durP1;ratioP1;P1;durP2;ratioP2;P2;SDS_P1;SDS_P2;PMS_P1;PMS_P2;Temp;Humidity;BMP_temperature;BMP_pressure;BME280_temperature;BME280_humidity;BME280_pressure;Samples;Min_cycle;Max_cycle;Signal;HPM_P1;HPM_P2
2023/12/20 00:00:59;;;;;;;1.80;1.35;;;5.60;99.90;;;;;;5033544;28;20539;-85
2023/12/20 00:03:25;;;;;;;2.20;1.42;;;5.40;99.90;;;;;;5016883;28;20069;-79
2023/12/20 00:05:50;;;;;;;2.33;1.17;;;5.40;99.90;;;;;;5016657;28;20037;-79
2023/12/20 00:08:16;;;;;;;1.73;1.23;;;5.40;99.90;;;;;;5033234;28;20124;-79
2023/12/20 00:10:43;;;;;;;2.63;1.27;;;5.50;99.90;;;;;;5016576;28;20042;-79
2023/12/20 00:13:09;;;;;;;2.95;1.20;;;5.40;99.90;;;;;;5016652;28;20393;-79
2023/12/20 00:15:35;;;;;;;3.08;1.42;;;5.30;99.90;;;;;;5032976;28;20042;-79
2023/12/20 00:18:01;;;;;;;1.38;0.95;;;5.40;99.90;;;;;;5016689;28;20559;-79
2023/12/20 00:20:27;;;;;;;2.03;1.27;;;5.30;99.90;;;;;;5016352;28;20045;-79
2023/12/20 00:22:57;;;;;;;1.52;1.02;;;5.40;99.90;;;;;;5032773;28;20049;-79
2023/12/20 00:25:23;;;;;;;1.23;0.90;;;5.30;99.90;;;;;;5016571;28;20497;-79
2023/12/20 00:27:49;;;;;;;2.17;1.10;;;5.90;99.90;;;;;;5016086;28;20127;-79
2023/12/20 00:30:15;;;;;;;4.43;1.77;;;5.20;99.90;;;;;;5016257;28;20097;-79
2023/12/20 00:32:46;;;;;;;1.48;1.10;;;5.20;99.90;;;;;;5032998;28;20092;-79
2023/12/20 00:35:13;;;;;;;1.30;0.90;;;5.20;99.90;;;;;;5032796;28;20056;-79
2023/12/20 00:37:38;;;;;;;1.30;1.00;;;5.20;99.90;;;;;;5015962;28;20096;-79
2023/12/20 00:40:05;;;;;;;3.33;1.13;;;5.10;99.90;;;;;;5016104;28;20481;-79
2023/12/20 00:42:30;;;;;;;2.95;1.20;;;5.20;99.90;;;;;;5032782;28;20084;-79
2023/12/20 00:44:56;;;;;;;1.98;1.23;;;5.20;99.90;;;;;;5032922;28;20110;-79
2023/12/20 00:47:22;;;;;;;3.38;1.10;;;5.20;99.90;;;;;;5032733;28;20081;-79
2023/12/20 00:49:47;;;;;;;1.60;1.10;;;5.20;99.90;;;;;;5032221;28;20044;-79
2023/12/20 00:52:14;;;;;;;2.17;1.42;;;5.30;99.90;;;;;;5016165;28;20045;-81
2023/12/20 00:54:39;;;;;;;2.20;1.15;;;5.40;99.90;;;;;;5032245;28;20408;-82
2023/12/20 00:57:05;;;;;;;1.10;1.00;;;5.70;99.90;;;;;;5032184;28;20033;-81
2023/12/20 00:59:31;;;;;;;1.23;0.98;;;5.50;99.90;;;;;;5032098;28;20408;-81
2023/12/20 01:01:56;;;;;;;2.22;1.30;;;5.50;99.90;;;;;;5015730;28;20037;-81
2023/12/20 01:04:22;;;;;;;1.95;1.05;;;5.50;99.90;;;;;;5032041;28;20077;-81
2023/12/20 01:06:48;;;;;;;1.52;0.90;;;5.50;99.90;;;;;;5015430;28;20455;-81
2023/12/20 01:09:14;;;;;;;2.80;1.50;;;5.50;99.90;;;;;;5015365;28;20048;-81
2023/12/20 01:11:39;;;;;;;3.70;1.15;;;5.40;99.90;;;;;;5031938;28;20048;-80
2023/12/20 01:14:05;;;;;;;1.77;1.17;;;5.40;99.90;;;;;;5032365;28;20038;-80
2023/12/20 01:16:31;;;;;;;2.08;0.95;;;5.40;99.90;;;;;;5015348;28;20069;-80
2023/12/20 01:18:57;;;;;;;1.52;1.27;;;5.30;99.90;;;;;;5015340;28;20095;-80
2023/12/20 01:21:22;;;;;;;3.30;1.58;;;5.30;99.90;;;;;;5032097;28;20053;-80
2023/12/20 01:23:48;;;;;;;2.88;1.25;;;5.40;99.90;;;;;;5031882;28;20124;-80
2023/12/20 01:26:15;;;;;;;2.40;1.27;;;5.30;99.90;;;;;;5031901;28;20538;-80
2023/12/20 01:28:40;;;;;;;2.88;1.40;;;5.30;99.90;;;;;;5031792;28;20068;-80
2023/12/20 01:31:06;;;;;;;2.08;1.20;;;5.30;99.90;;;;;;5015508;28;20037;-80
2023/12/20 01:33:32;;;;;;;2.42;1.10;;;5.30;99.90;;;;;;5015489;28;20049;-80
2023/12/20 01:35:57;;;;;;;3.58;1.83;;;5.30;99.90;;;;;;5031514;28;20094;-80
2023/12/20 01:38:23;;;;;;;1.95;1.30;;;5.30;99.90;;;;;;5015002;28;20041;-80
2023/12/20 01:40:48;;;;;;;5.43;1.58;;;5.30;99.90;;;;;;5015137;28;20108;-80
2023/12/20 01:43:14;;;;;;;2.33;1.52;;;5.30;99.90;;;;;;5014806;28;20184;-80
2023/12/20 01:45:40;;;;;;;3.13;1.48;;;5.30;99.90;;;;;;5031681;28;20037;-80
2023/12/20 01:48:08;;;;;;;2.72;1.20;;;5.30;99.90;;;;;;5031282;28;20132;-80
2023/12/20 01:50:36;;;;;;;2.53;1.25;;;5.40;99.90;;;;;;5014658;28;20401;-80
2023/12/20 01:53:06;;;;;;;3.70;1.67;;;5.40;99.90;;;;;;5014840;28;20060;-81
2023/12/20 01:55:34;;;;;;;2.75;1.48;;;5.40;99.90;;;;;;5031180;28;20041;-82
2023/12/20 01:58:00;;;;;;;3.58;1.33;;;5.40;99.90;;;;;;5014595;28;20048;-81
2023/12/20 02:00:27;;;;;;;3.00;1.35;;;5.40;99.90;;;;;;5031056;28;20041;-81
2023/12/20 02:02:57;;;;;;;3.28;1.58;;;5.50;99.90;;;;;;5014086;28;20088;-77
2023/12/20 02:05:23;;;;;;;3.22;1.35;;;5.50;99.90;;;;;;5031314;28;20049;-77
2023/12/20 02:07:49;;;;;;;2.13;1.30;;;5.90;99.90;;;;;;5030879;28;20048;-77
2023/12/20 02:10:16;;;;;;;3.78;1.63;;;5.60;99.90;;;;;;5031133;28;20037;-77
2023/12/20 02:12:41;;;;;;;2.15;1.17;;;5.60;99.90;;;;;;5014583;28;20160;-78
2023/12/20 02:15:07;;;;;;;2.40;1.40;;;5.60;99.90;;;;;;5030865;28;20149;-78
2023/12/20 02:17:33;;;;;;;2.80;1.40;;;5.50;99.90;;;;;;5030952;28;20515;-78
2023/12/20 02:19:59;;;;;;;2.38;1.33;;;5.50;99.90;;;;;;5030905;28;20124;-78
2023/12/20 02:22:25;;;;;;;5.00;1.70;;;6.00;99.90;;;;;;5014604;28;20461;-81
2023/12/20 02:24:51;;;;;;;2.55;1.63;;;5.60;99.90;;;;;;5014237;28;20524;-81
2023/12/20 02:27:19;;;;;;;2.55;1.20;;;5.70;99.90;;;;;;5014381;28;20091;-81
2023/12/20 02:29:47;;;;;;;3.30;1.35;;;5.60;99.90;;;;;;5030570;28;20056;-81
2023/12/20 02:32:12;;;;;;;2.78;1.23;;;5.60;99.90;;;;;;5030745;28;20060;-81
2023/12/20 02:34:38;;;;;;;2.05;1.40;;;5.60;99.90;;;;;;5030659;28;20583;-81
2023/12/20 02:37:04;;;;;;;3.13;1.38;;;5.60;99.90;;;;;;5030930;28;20477;-81
2023/12/20 02:39:30;;;;;;;2.95;1.60;;;5.60;99.90;;;;;;5030730;28;20095;-81
2023/12/20 02:41:56;;;;;;;2.38;1.25;;;5.70;99.90;;;;;;5030912;28;20037;-81
2023/12/20 02:44:21;;;;;;;1.92;1.58;;;5.60;99.90;;;;;;5014060;28;20060;-82
2023/12/20 02:46:47;;;;;;;5.68;1.83;;;5.60;99.90;;;;;;5014149;28;20056;-81
2023/12/20 02:49:13;;;;;;;3.05;1.77;;;5.60;99.90;;;;;;5014024;28;20409;-81
2023/12/20 02:51:38;;;;;;;3.53;1.77;;;5.60;99.90;;;;;;5030451;28;20492;-81
2023/12/20 02:54:05;;;;;;;3.25;1.40;;;5.60;99.90;;;;;;5030753;28;20041;-81
2023/12/20 02:56:32;;;;;;;3.10;1.40;;;5.60;99.90;;;;;;5014049;28;20405;-81
2023/12/20 02:58:57;;;;;;;4.75;1.88;;;5.70;99.90;;;;;;5013972;28;20049;-81
2023/12/20 03:01:23;;;;;;;2.72;1.48;;;5.70;99.90;;;;;;5013951;28;20056;-81
2023/12/20 03:03:49;;;;;;;2.45;1.42;;;5.80;99.90;;;;;;5013994;28;20059;-81
2023/12/20 03:06:21;;;;;;;2.20;1.65;;;5.80;99.90;;;;;;5014181;28;20163;-81
2023/12/20 03:08:46;;;;;;;3.42;1.63;;;5.90;99.90;;;;;;5030327;28;20077;-81
2023/12/20 03:11:12;;;;;;;2.88;1.30;;;5.80;99.90;;;;;;5030302;28;20103;-81
2023/12/20 03:13:38;;;;;;;2.75;1.80;;;5.90;99.90;;;;;;5014982;28;20041;-81
2023/12/20 03:16:13;;;;;;;2.45;1.65;;;5.90;99.90;;;;;;5017751;28;20044;-81
2023/12/20 03:18:39;;;;;;;2.80;1.80;;;5.90;99.90;;;;;;5017486;28;20404;-81
2023/12/20 03:21:05;;;;;;;3.25;1.75;;;5.90;99.90;;;;;;5034245;28;20045;-81
2023/12/20 03:23:33;;;;;;;3.30;1.85;;;6.90;99.90;;;;;;5034114;28;20037;-77
2023/12/20 03:25:59;;;;;;;2.55;1.63;;;5.80;99.90;;;;;;5033982;28;20045;-78
2023/12/20 03:28:26;;;;;;;4.20;1.92;;;6.10;99.90;;;;;;5033816;28;20486;-78
2023/12/20 03:30:52;;;;;;;6.50;2.17;;;5.80;99.90;;;;;;5034222;28;20033;-78
2023/12/20 03:33:17;;;;;;;2.83;1.30;;;5.80;99.90;;;;;;5017969;28;20049;-81
2023/12/20 03:35:43;;;;;;;2.15;1.30;;;5.70;99.90;;;;;;5034271;28;20515;-81
2023/12/20 03:38:09;;;;;;;3.40;1.75;;;5.70;99.90;;;;;;5018043;28;20405;-80
2023/12/20 03:40:35;;;;;;;4.60;2.10;;;5.70;99.90;;;;;;5034472;28;20056;-81
2023/12/20 03:43:00;;;;;;;4.43;1.67;;;5.80;99.90;;;;;;5017580;28;20044;-80
2023/12/20 03:45:26;;;;;;;3.85;2.00;;;5.70;99.90;;;;;;5017889;28;20420;-81
2023/12/20 03:47:55;;;;;;;2.97;1.70;;;5.70;99.90;;;;;;5017684;28;20183;-81
2023/12/20 03:50:24;;;;;;;4.47;2.13;;;6.10;99.90;;;;;;5034255;28;20424;-81
2023/12/20 03:52:49;;;;;;;2.53;1.70;;;5.70;99.90;;;;;;5017512;28;20038;-82
2023/12/20 03:55:15;;;;;;;5.18;2.20;;;5.90;99.90;;;;;;5034695;28;20576;-80
2023/12/20 03:57:41;;;;;;;2.38;1.63;;;5.70;99.90;;;;;;5036144;28;20033;-82
2023/12/20 04:00:10;;;;;;;5.22;2.20;;;5.70;99.90;;;;;;5036198;28;20486;-82
2023/12/20 04:02:42;;;;;;;2.92;1.77;;;5.70;99.90;;;;;;5019318;28;20033;-81
2023/12/20 04:05:09;;;;;;;4.30;2.35;;;5.70;99.90;;;;;;5034910;28;20068;-81
2023/12/20 04:07:38;;;;;;;3.45;1.88;;;5.80;99.90;;;;;;5019050;28;20095;-81
2023/12/20 04:10:05;;;;;;;4.45;1.88;;;5.80;99.90;;;;;;5034956;28;20385;-81
2023/12/20 04:12:31;;;;;;;3.25;2.03;;;5.80;99.90;;;;;;5018721;28;20045;-81
2023/12/20 04:14:57;;;;;;;4.53;2.38;;;6.10;99.90;;;;;;5035276;28;20037;-80
2023/12/20 04:17:23;;;;;;;2.72;1.88;;;6.00;99.90;;;;;;5018646;28;20052;-81
2023/12/20 04:19:49;;;;;;;2.40;1.65;;;5.90;99.90;;;;;;5018756;28;20056;-80
2023/12/20 04:22:15;;;;;;;5.05;1.73;;;6.00;99.90;;;;;;5018705;28;20095;-81
2023/12/20 04:24:42;;;;;;;5.95;2.85;;;6.20;99.90;;;;;;5035375;28;20033;-81
2023/12/20 04:27:08;;;;;;;3.70;2.00;;;6.10;99.90;;;;;;5036240;28;20421;-81
2023/12/20 04:29:34;;;;;;;4.15;2.00;;;6.40;99.90;;;;;;5037920;28;20045;-81
2023/12/20 04:32:00;;;;;;;4.32;2.38;;;6.10;99.90;;;;;;5035043;28;20547;-81
2023/12/20 04:34:26;;;;;;;5.25;2.42;;;6.20;99.90;;;;;;5034213;28;20045;-77
2023/12/20 04:36:52;;;;;;;4.80;2.05;;;6.20;99.90;;;;;;5017600;28;20045;-76
2023/12/20 04:39:18;;;;;;;4.72;1.85;;;6.20;99.90;;;;;;5017325;28;20076;-78
2023/12/20 04:41:44;;;;;;;6.20;2.40;;;6.30;99.90;;;;;;5016540;28;20044;-77
2023/12/20 04:44:09;;;;;;;3.47;1.90;;;6.40;99.90;;;;;;5017344;28;20115;-79
2023/12/20 04:46:35;;;;;;;5.53;1.88;;;6.30;99.90;;;;;;5033703;28;20111;-79
2023/12/20 04:49:01;;;;;;;3.95;2.22;;;6.30;99.90;;;;;;5033523;28;20044;-79
2023/12/20 04:51:27;;;;;;;4.32;1.98;;;6.60;99.90;;;;;;5033597;28;20049;-79
2023/12/20 04:53:52;;;;;;;4.00;2.08;;;6.50;99.90;;;;;;5016463;28;20517;-81
2023/12/20 04:56:18;;;;;;;5.28;2.15;;;6.30;99.90;;;;;;5016047;28;20079;-81
2023/12/20 04:58:44;;;;;;;6.78;2.33;;;6.30;99.90;;;;;;5032813;28;20037;-82
2023/12/20 05:01:09;;;;;;;3.78;1.65;;;6.30;99.90;;;;;;5032417;28;20038;-82
2023/12/20 05:03:36;;;;;;;5.22;2.33;;;6.30;99.90;;;;;;5016295;28;20515;-81
2023/12/20 05:06:01;;;;;;;4.60;2.75;;;6.30;99.90;;;;;;5032659;28;20519;-81
2023/12/20 05:08:27;;;;;;;2.72;1.75;;;6.30;99.90;;;;;;5015457;28;20124;-82
2023/12/20 05:10:56;;;;;;;4.28;2.28;;;6.30;99.90;;;;;;5015483;28;20030;-81
2023/12/20 05:13:22;;;;;;;4.30;2.05;;;6.40;99.90;;;;;;5031904;28;20095;-81
2023/12/20 05:15:48;;;;;;;3.15;2.05;;;7.00;99.90;;;;;;5015482;28;20033;-81
2023/12/20 05:18:14;;;;;;;4.57;2.20;;;6.50;99.90;;;;;;5015444;28;20060;-81
2023/12/20 05:20:39;;;;;;;6.43;2.42;;;6.50;99.90;;;;;;5032035;28;20045;-81
2023/12/20 05:23:05;;;;;;;5.15;2.33;;;6.50;99.90;;;;;;5015325;28;20048;-82
2023/12/20 05:25:31;;;;;;;3.58;1.85;;;6.50;99.90;;;;;;5031976;28;20048;-82
2023/12/20 05:27:57;;;;;;;4.05;2.20;;;6.50;99.90;;;;;;5015113;28;20076;-82
2023/12/20 05:30:23;;;;;;;3.95;2.20;;;6.50;99.90;;;;;;5031549;28;20511;-81
2023/12/20 05:32:48;;;;;;;4.38;2.30;;;6.50;99.90;;;;;;5015545;28;20041;-82
2023/12/20 05:35:15;;;;;;;5.50;2.40;;;6.60;99.90;;;;;;5031717;28;20073;-81
2023/12/20 05:37:41;;;;;;;6.72;2.50;;;6.60;99.90;;;;;;5031422;28;20045;-82
2023/12/20 05:40:10;;;;;;;4.43;2.40;;;6.70;99.90;;;;;;5031456;28;20378;-81
2023/12/20 05:42:36;;;;;;;7.15;3.28;;;6.70;99.90;;;;;;5031597;28;20045;-81
2023/12/20 05:45:02;;;;;;;10.23;2.60;;;6.70;99.90;;;;;;5031295;28;20058;-78
2023/12/20 05:47:28;;;;;;;4.30;2.42;;;6.60;99.90;;;;;;5031433;28;20382;-81
2023/12/20 05:49:53;;;;;;;3.58;1.90;;;6.70;99.90;;;;;;5014690;28;20041;-78
2023/12/20 05:52:20;;;;;;;2.63;1.85;;;6.70;99.90;;;;;;5031528;28;20045;-78
2023/12/20 05:54:46;;;;;;;5.43;2.47;;;6.70;99.90;;;;;;5031163;28;20147;-78
2023/12/20 05:57:12;;;;;;;3.08;1.88;;;6.80;99.90;;;;;;5031013;28;20538;-78
2023/12/20 05:59:38;;;;;;;3.17;1.90;;;6.90;99.90;;;;;;5031151;28;20470;-78
2023/12/20 06:02:04;;;;;;;2.97;1.85;;;6.70;99.90;;;;;;5031013;28;20412;-78
2023/12/20 06:04:30;;;;;;;3.45;1.60;;;6.80;99.90;;;;;;5031294;28;20099;-78
2023/12/20 06:06:56;;;;;;;3.00;2.35;;;7.70;99.90;;;;;;5030939;28;20045;-78
2023/12/20 06:09:22;;;;;;;6.53;2.58;;;6.80;99.90;;;;;;5014448;28;20397;-78
2023/12/20 06:11:47;;;;;;;5.07;2.28;;;8.00;99.90;;;;;;5031191;28;20485;-78
2023/12/20 06:14:13;;;;;;;2.67;2.00;;;7.60;99.90;;;;;;5014800;28;20041;-78
2023/12/20 06:16:38;;;;;;;4.78;2.42;;;6.80;99.90;;;;;;5030890;28;20045;-78
2023/12/20 06:19:04;;;;;;;6.70;2.53;;;6.90;99.90;;;;;;5031062;28;20045;-76
2023/12/20 06:21:30;;;;;;;5.68;2.63;;;6.90;99.90;;;;;;5030832;28;20049;-78
2023/12/20 06:23:55;;;;;;;3.80;1.80;;;6.90;99.90;;;;;;5030812;28;20511;-77
2023/12/20 06:26:21;;;;;;;4.13;2.20;;;6.90;99.90;;;;;;5030688;28;20114;-78
2023/12/20 06:28:47;;;;;;;4.13;2.38;;;6.90;99.90;;;;;;5030819;28;20049;-79
2023/12/20 06:31:13;;;;;;;4.18;2.50;;;7.00;99.90;;;;;;5014573;28;20042;-79
2023/12/20 06:33:41;;;;;;;4.90;2.20;;;7.00;99.90;;;;;;5030902;28;20412;-79
2023/12/20 06:36:06;;;;;;;3.22;1.92;;;7.20;99.90;;;;;;5014456;28;20037;-81
2023/12/20 06:38:32;;;;;;;2.58;1.48;;;7.00;99.90;;;;;;5014136;28;20060;-78
2023/12/20 06:40:58;;;;;;;4.82;2.08;;;7.00;99.90;;;;;;5014340;28;20132;-77
2023/12/20 06:43:24;;;;;;;5.07;2.17;;;7.00;99.90;;;;;;5030628;28;20145;-78
2023/12/20 06:45:50;;;;;;;7.75;2.60;;;7.00;99.90;;;;;;5030537;28;20520;-79
2023/12/20 06:48:16;;;;;;;5.38;2.58;;;7.00;99.90;;;;;;5031031;28;20046;-80
2023/12/20 06:50:42;;;;;;;5.47;2.00;;;7.00;99.90;;;;;;5018082;28;20128;-78
2023/12/20 06:53:08;;;;;;;3.90;2.28;;;7.00;99.90;;;;;;5018012;28;20041;-78
2023/12/20 06:55:36;;;;;;;3.95;2.30;;;7.00;99.90;;;;;;5034631;28;20107;-80
2023/12/20 06:58:02;;;;;;;4.90;2.00;;;7.00;99.90;;;;;;5034610;28;20095;-79
2023/12/20 07:00:32;;;;;;;5.65;3.10;;;7.00;99.90;;;;;;5035856;28;20037;-87
2023/12/20 07:02:57;;;;;;;5.40;2.10;;;6.90;99.90;;;;;;5018567;28;20564;-81
2023/12/20 07:05:23;;;;;;;3.50;2.10;;;6.90;99.90;;;;;;5034496;28;20041;-78
2023/12/20 07:07:48;;;;;;;5.03;2.65;;;7.00;99.90;;;;;;5017928;28;20052;-79
2023/12/20 07:10:14;;;;;;;4.05;1.92;;;7.00;99.90;;;;;;5034531;28;20049;-82
2023/12/20 07:12:40;;;;;;;4.88;2.47;;;7.00;99.90;;;;;;5017594;28;20034;-80
2023/12/20 07:15:07;;;;;;;2.88;2.10;;;7.00;99.90;;;;;;5034184;28;20041;-81
2023/12/20 07:17:34;;;;;;;4.22;1.80;;;7.10;99.90;;;;;;5034382;28;20041;-81
2023/12/20 07:20:03;;;;;;;4.70;2.42;;;7.10;99.90;;;;;;5017927;28;20056;-79
2023/12/20 07:22:33;;;;;;;6.28;2.28;;;7.10;99.90;;;;;;5034212;28;20049;-82
2023/12/20 07:25:00;;;;;;;2.97;1.98;;;7.20;99.90;;;;;;5034098;28;20049;-83
2023/12/20 07:27:26;;;;;;;3.65;1.90;;;7.10;99.90;;;;;;5034035;28;20052;-82
2023/12/20 07:29:52;;;;;;;3.00;1.63;;;7.10;99.90;;;;;;5033953;28;20041;-83
2023/12/20 07:32:17;;;;;;;4.70;2.67;;;7.10;99.90;;;;;;5033880;28;20045;-82
2023/12/20 07:34:43;;;;;;;3.75;1.92;;;7.40;99.90;;;;;;5034260;28;20124;-82
2023/12/20 07:37:13;;;;;;;4.07;2.00;;;7.20;99.90;;;;;;5033681;28;20124;-81
2023/12/20 07:39:42;;;;;;;3.78;2.08;;;7.20;99.90;;;;;;5017296;28;20043;-82
2023/12/20 07:42:08;;;;;;;4.22;2.17;;;7.20;99.90;;;;;;5033973;28;20052;-82
2023/12/20 07:44:35;;;;;;;4.30;2.33;;;7.20;99.90;;;;;;5017177;28;20141;-81
2023/12/20 07:47:01;;;;;;;5.90;2.53;;;7.20;99.90;;;;;;5033877;28;20046;-83
2023/12/20 07:49:27;;;;;;;3.05;1.77;;;7.30;99.90;;;;;;5033444;28;20052;-82
2023/12/20 07:51:53;;;;;;;4.35;2.28;;;7.30;99.90;;;;;;5017463;28;20452;-83
2023/12/20 07:54:18;;;;;;;5.40;2.47;;;7.30;99.90;;;;;;5033690;28;20037;-82
2023/12/20 07:56:45;;;;;;;3.92;2.67;;;7.50;99.90;;;;;;5033620;28;20079;-84
2023/12/20 07:59:10;;;;;;;3.70;2.00;;;7.40;99.90;;;;;;5033046;28;20042;-82
2023/12/20 08:01:36;;;;;;;3.67;1.75;;;7.30;99.90;;;;;;5032360;28;20144;-83
2023/12/20 08:04:02;;;;;;;4.95;2.38;;;8.00;99.90;;;;;;5033377;28;20055;-82
2023/12/20 08:06:27;;;;;;;3.85;2.50;;;7.40;99.90;;;;;;5033354;28;20053;-82
2023/12/20 08:08:53;;;;;;;4.30;2.08;;;7.40;99.90;;;;;;5033077;28;20041;-79
2023/12/20 08:11:19;;;;;;;4.18;2.53;;;7.40;99.90;;;;;;5016622;28;20477;-81
2023/12/20 08:13:44;;;;;;;3.72;1.88;;;7.40;99.90;;;;;;5033012;28;20401;-78
2023/12/20 08:16:13;;;;;;;2.70;2.10;;;7.50;99.90;;;;;;5033014;28;20037;-78
2023/12/20 08:18:39;;;;;;;4.32;2.22;;;7.50;99.90;;;;;;5016388;28;20041;-78
2023/12/20 08:21:07;;;;;;;4.22;2.13;;;7.50;99.90;;;;;;5032728;28;20507;-78
2023/12/20 08:23:33;;;;;;;4.53;2.13;;;8.00;99.90;;;;;;5032840;28;20042;-77
2023/12/20 08:26:03;;;;;;;4.10;2.15;;;7.70;99.90;;;;;;5016279;28;20048;-77
2023/12/20 08:28:28;;;;;;;5.88;2.88;;;7.50;99.90;;;;;;5032893;28;20085;-77
2023/12/20 08:30:54;;;;;;;4.60;2.10;;;7.60;99.90;;;;;;5032793;28;20069;-77
2023/12/20 08:33:20;;;;;;;3.90;2.47;;;7.60;99.90;;;;;;5032684;28;20424;-78
2023/12/20 08:35:46;;;;;;;3.58;1.73;;;7.70;99.90;;;;;;5016405;28;20042;-87
2023/12/20 08:38:11;;;;;;;3.50;2.22;;;7.70;99.90;;;;;;5033189;28;20087;-86
2023/12/20 08:40:37;;;;;;;4.65;2.00;;;7.70;99.90;;;;;;5033621;28;20045;-86
2023/12/20 08:43:03;;;;;;;5.82;2.00;;;7.70;99.90;;;;;;5032945;28;20056;-86
2023/12/20 08:45:29;;;;;;;4.90;2.15;;;7.70;99.90;;;;;;5016531;28;20139;-81
2023/12/20 08:47:54;;;;;;;3.53;1.80;;;7.60;99.90;;;;;;5032864;28;20124;-82
2023/12/20 08:50:20;;;;;;;2.85;1.45;;;7.60;99.90;;;;;;5032893;28;20041;-85
2023/12/20 08:52:46;;;;;;;2.10;1.20;;;7.50;99.90;;;;;;5015842;28;20444;-75
2023/12/20 08:55:12;;;;;;;3.10;1.58;;;7.30;99.90;;;;;;5032582;28;20060;-84
2023/12/20 08:57:38;;;;;;;3.30;1.75;;;7.10;99.90;;;;;;5016179;28;20404;-85
2023/12/20 09:00:07;;;;;;;2.97;1.40;;;7.00;99.90;;;;;;5016254;28;20033;-85
2023/12/20 09:02:33;;;;;;;2.65;1.52;;;6.90;99.90;;;;;;5032999;28;20416;-83
2023/12/20 09:04:59;;;;;;;3.28;1.60;;;6.90;99.90;;;;;;5032543;28;20447;-83
2023/12/20 09:07:26;;;;;;;2.80;1.95;;;7.00;99.90;;;;;;5032665;28;20128;-84
2023/12/20 09:09:52;;;;;;;6.53;1.92;;;7.10;99.90;;;;;;5032588;28;20044;-83
2023/12/20 09:12:19;;;;;;;4.30;1.98;;;7.20;99.90;;;;;;5015459;28;20444;-83
2023/12/20 09:14:45;;;;;;;4.95;2.58;;;7.20;99.90;;;;;;5015532;28;20063;-83
2023/12/20 09:17:11;;;;;;;2.90;2.05;;;7.30;99.90;;;;;;5016004;28;20076;-83
2023/12/20 09:19:38;;;;;;;4.28;2.13;;;7.40;99.90;;;;;;5015673;28;20132;-83
2023/12/20 09:22:04;;;;;;;4.38;2.00;;;7.40;99.90;;;;;;5015604;28;20042;-81
2023/12/20 09:24:30;;;;;;;4.78;2.38;;;7.50;99.90;;;;;;5015457;28;20512;-76
2023/12/20 09:26:56;;;;;;;5.25;2.22;;;7.60;99.90;;;;;;5031535;28;20050;-77
2023/12/20 09:29:22;;;;;;;6.18;2.42;;;7.70;99.90;;;;;;5031629;28;20048;-78
2023/12/20 09:31:48;;;;;;;1.20;0.90;;;7.80;99.90;;;;;;5031522;28;20045;-77
2023/12/20 09:34:15;;;;;;;2.13;1.35;;;7.20;99.90;;;;;;5031447;28;20048;-77
2023/12/20 09:36:46;;;;;;;1.27;0.90;;;7.00;99.90;;;;;;5015079;28;20076;-77
2023/12/20 09:39:19;;;;;;;1.42;1.15;;;6.50;99.90;;;;;;5031442;28;20045;-77
2023/12/20 09:41:46;;;;;;;2.25;1.02;;;6.30;99.90;;;;;;5015140;28;20037;-77
2023/12/20 09:44:19;;;;;;;1.05;0.82;;;6.30;99.90;;;;;;5031183;28;20107;-76
2023/12/20 09:46:49;;;;;;;1.40;1.08;;;6.10;99.90;;;;;;5014676;28;20052;-76
2023/12/20 09:49:15;;;;;;;1.65;0.88;;;6.10;99.90;;;;;;5031145;28;20049;-83
2023/12/20 09:51:42;;;;;;;2.15;1.25;;;6.00;99.90;;;;;;5031811;28;20091;-82
2023/12/20 09:54:09;;;;;;;0.85;0.65;;;6.00;99.90;;;;;;5014886;28;20128;-83
2023/12/20 09:56:36;;;;;;;1.42;0.88;;;6.00;99.90;;;;;;5031367;28;20029;-83
2023/12/20 09:59:02;;;;;;;1.92;0.90;;;6.00;99.90;;;;;;5014994;28;20078;-82
2023/12/20 10:01:28;;;;;;;1.63;1.00;;;6.00;99.90;;;;;;5031275;28;20130;-83
2023/12/20 10:03:55;;;;;;;1.50;0.93;;;7.10;99.90;;;;;;5031495;28;20408;-82
2023/12/20 10:06:21;;;;;;;1.63;1.20;;;6.30;99.90;;;;;;5031199;28;20045;-83
2023/12/20 10:08:47;;;;;;;1.08;0.90;;;6.10;99.90;;;;;;5014530;28;20052;-83
2023/12/20 10:11:13;;;;;;;2.92;0.80;;;6.10;99.90;;;;;;5030868;28;20033;-82
2023/12/20 10:13:44;;;;;;;0.77;0.75;;;6.00;99.90;;;;;;5014648;28;20041;-81
2023/12/20 10:16:09;;;;;;;1.95;1.00;;;6.10;99.90;;;;;;5031069;28;20447;-81
2023/12/20 10:18:35;;;;;;;2.08;1.30;;;6.10;99.90;;;;;;5014619;28;20127;-81
2023/12/20 10:21:03;;;;;;;2.92;1.15;;;6.10;99.90;;;;;;5014435;28;20041;-81
2023/12/20 10:23:29;;;;;;;1.55;0.93;;;6.10;99.90;;;;;;5030228;28;20042;-75
2023/12/20 10:25:59;;;;;;;1.58;1.10;;;6.10;99.90;;;;;;5014604;28;20052;-82
2023/12/20 10:28:27;;;;;;;2.25;1.30;;;6.10;99.90;;;;;;5030768;28;20041;-83
2023/12/20 10:30:57;;;;;;;1.55;0.90;;;6.20;99.90;;;;;;5030918;28;20064;-82
2023/12/20 10:33:28;;;;;;;1.92;1.15;;;6.10;99.90;;;;;;5014570;28;20048;-82
2023/12/20 10:35:54;;;;;;;;;;;6.20;99.90;;;;;;5031360;28;20112;-82
2023/12/20 10:38:19;;;;;;;2.38;1.02;;;6.10;99.90;;;;;;5030829;28;20051;-81
2023/12/20 10:40:46;;;;;;;1.92;0.88;;;6.00;99.90;;;;;;5014337;28;20041;-82
2023/12/20 10:43:13;;;;;;;1.55;1.25;;;6.00;99.90;;;;;;5030818;28;20049;-82
2023/12/20 10:45:39;;;;;;;2.75;1.48;;;6.00;99.90;;;;;;5030713;28;20052;-82
2023/12/20 10:48:05;;;;;;;1.98;1.13;;;6.00;99.90;;;;;;5014219;28;20037;-82
2023/12/20 10:50:31;;;;;;;0.80;0.73;;;6.00;99.90;;;;;;5030668;28;20076;-83
2023/12/20 10:52:58;;;;;;;0.85;0.70;;;6.00;99.90;;;;;;5030625;28;20034;-84
2023/12/20 10:55:24;;;;;;;2.25;1.05;;;6.30;99.90;;;;;;5030987;28;20400;-82
2023/12/20 10:57:52;;;;;;;1.58;0.90;;;6.70;99.90;;;;;;5014143;28;20042;-80
2023/12/20 11:00:19;;;;;;;2.30;0.90;;;6.10;99.90;;;;;;5014152;28;20033;-81
2023/12/20 11:02:45;;;;;;;1.67;1.02;;;6.30;99.90;;;;;;5014114;28;20448;-82
2023/12/20 11:05:27;;;;;;;2.00;1.38;;;6.80;99.90;;;;;;5030501;28;20042;-81
2023/12/20 11:08:06;;;;;;;1.73;1.10;;;6.40;99.90;;;;;;5014225;28;20064;-81
2023/12/20 11:10:51;;;;;;;2.17;1.13;;;6.40;99.90;;;;;;5030503;28;20412;-81
2023/12/20 11:13:23;;;;;;;2.10;1.00;;;6.40;99.90;;;;;;5014092;28;20037;-81
2023/12/20 11:15:49;;;;;;;2.20;1.30;;;6.50;99.90;;;;;;5013987;28;20033;-81
2023/12/20 11:18:15;;;;;;;2.33;1.20;;;6.60;99.90;;;;;;5014316;28;20560;-81
2023/12/20 11:20:42;;;;;;;1.88;1.25;;;6.60;99.90;;;;;;5030583;28;20046;-81
2023/12/20 11:23:09;;;;;;;2.85;1.23;;;6.60;99.90;;;;;;5030231;28;20501;-81
2023/12/20 11:25:47;;;;;;;1.23;1.00;;;6.60;99.90;;;;;;5030202;28;20409;-81
2023/12/20 11:28:13;;;;;;;3.92;1.77;;;6.60;99.90;;;;;;5030225;28;20049;-83
2023/12/20 11:30:43;;;;;;;1.90;1.13;;;6.90;99.90;;;;;;5030351;28;20128;-82
2023/12/20 11:33:09;;;;;;;3.08;1.25;;;6.70;99.90;;;;;;5030148;28;20038;-81
2023/12/20 11:35:36;;;;;;;2.08;1.08;;;6.70;99.90;;;;;;5032668;28;20401;-81
2023/12/20 11:38:02;;;;;;;1.63;1.10;;;6.80;99.90;;;;;;5017332;28;20060;-81
2023/12/20 11:40:28;;;;;;;2.45;1.17;;;6.80;99.90;;;;;;5017532;28;20374;-82
2023/12/20 11:42:54;;;;;;;1.83;1.35;;;6.80;99.90;;;;;;5033494;28;20179;-82
2023/12/20 11:45:21;;;;;;;2.33;1.50;;;6.90;99.90;;;;;;5034163;28;20049;-82
2023/12/20 11:47:49;;;;;;;1.98;1.17;;;6.90;99.90;;;;;;5034284;28;20103;-82
2023/12/20 11:50:16;;;;;;;1.20;1.00;;;7.00;99.90;;;;;;5017142;28;20041;-83
2023/12/20 11:52:41;;;;;;;2.65;1.30;;;7.00;99.90;;;;;;5033919;28;20096;-84
2023/12/20 11:55:07;;;;;;;2.13;1.42;;;7.00;99.90;;;;;;5033701;28;20492;-82
2023/12/20 11:57:34;;;;;;;1.38;1.10;;;7.00;99.90;;;;;;5017287;28;20038;-83
2023/12/20 11:59:59;;;;;;;1.23;0.90;;;7.10;99.90;;;;;;5033670;28;20049;-82
2023/12/20 12:02:25;;;;;;;1.45;1.15;;;7.10;99.90;;;;;;5033435;28;20390;-82
2023/12/20 12:04:51;;;;;;;1.55;1.10;;;7.40;99.90;;;;;;5016936;28;20559;-82
2023/12/20 12:07:17;;;;;;;1.88;1.40;;;7.40;99.90;;;;;;5033537;28;20505;-82
2023/12/20 12:09:43;;;;;;;2.75;1.33;;;7.70;99.90;;;;;;5033061;28;20052;-83
2023/12/20 12:12:10;;;;;;;1.83;1.30;;;7.50;99.90;;;;;;5033389;28;20091;-82
2023/12/20 12:14:37;;;;;;;2.17;1.05;;;7.50;99.90;;;;;;5033221;28;20446;-82
2023/12/20 12:17:04;;;;;;;2.38;1.23;;;7.80;99.90;;;;;;5033251;28;20056;-83
2023/12/20 12:19:34;;;;;;;2.53;1.35;;;8.00;99.90;;;;;;5033298;28;20408;-82
2023/12/20 12:22:25;;;;;;;1.55;1.08;;;7.50;99.90;;;;;;5016487;28;20041;-82
2023/12/20 12:24:51;;;;;;;2.50;1.40;;;7.50;99.90;;;;;;5016443;28;20049;-81
2023/12/20 12:27:16;;;;;;;1.08;0.85;;;7.40;99.90;;;;;;5016653;28;20622;-82
2023/12/20 12:30:02;;;;;;;2.63;1.48;;;7.40;99.90;;;;;;5032770;28;20057;-81
2023/12/20 12:32:27;;;;;;;3.45;1.55;;;7.40;99.90;;;;;;5033150;28;20034;-82
2023/12/20 12:34:53;;;;;;;2.17;1.08;;;7.30;99.90;;;;;;5016218;28;20052;-81
2023/12/20 12:37:19;;;;;;;2.63;1.75;;;7.70;99.90;;;;;;5032570;28;20562;-81
2023/12/20 12:39:46;;;;;;;2.65;1.23;;;7.30;99.90;;;;;;5016170;28;20394;-81
2023/12/20 12:42:12;;;;;;;3.35;1.75;;;7.20;99.90;;;;;;5016024;28;20045;-81
2023/12/20 12:44:38;;;;;;;3.28;1.35;;;7.20;99.90;;;;;;5032395;28;20084;-81
2023/12/20 12:47:03;;;;;;;2.05;1.00;;;7.20;99.90;;;;;;5031698;28;20489;-82
2023/12/20 12:49:29;;;;;;;2.05;1.10;;;7.20;99.90;;;;;;5032483;28;20504;-82
2023/12/20 12:51:58;;;;;;;3.00;1.17;;;7.10;99.90;;;;;;5033083;28;20045;-82
2023/12/20 12:54:24;;;;;;;1.77;1.00;;;7.20;99.90;;;;;;5032989;28;20366;-82